Agate Beach, Washington
Current Conditions -  °F | °C
As of 1:53 AM on Thursday 27 Nov 2014 (Local Time) from KCLM Reporting Station
Broken Clouds Broken Clouds  
Wind Chill: 56°   Ceiling: 4700
Heat Index: 56°   Visibility: 10mi
Dew Point: 51°   Wind: 13mph
Humidity: 84%   Direction: 250°WSW
Pressure: 29.75"   Gusts: NA
Location:  48.1359°N, 123.734°W
Report Text: KCLM 270953Z AUTO 25011KT 10SM BKN047 BKN070 13/11 A2975 RMK AO2 RAB03E16B35E53 SLP073 P0000 T01330106 $
Loading
Personal Weather Stations






























Interactive Weather Map New forecast layout! Learn more

10-Day Weather Forecast

Advertisements
Track Severe Weather on mobile